createdAt,value
2023-12-27T00:00:42.912Z,61.12
2023-12-27T00:01:42.812Z,61.38
2023-12-27T00:02:42.849Z,62.76
2023-12-27T00:03:42.963Z,62.80
2023-12-27T00:04:42.888Z,63.07
2023-12-27T00:05:42.930Z,62.99
2023-12-27T00:06:43.016Z,62.88
2023-12-27T00:07:42.897Z,63.52
2023-12-27T00:08:42.871Z,62.78
2023-12-27T00:09:42.947Z,62.87
2023-12-27T00:10:42.895Z,62.91
2023-12-27T00:11:42.893Z,62.94
2023-12-27T00:12:42.896Z,63.18
2023-12-27T00:13:42.905Z,62.70
2023-12-27T00:14:42.887Z,62.63
2023-12-27T00:15:42.914Z,63.33
2023-12-27T00:16:42.895Z,64.10
2023-12-27T00:17:43.004Z,63.90
2023-12-27T00:18:43.063Z,63.33
2023-12-27T00:19:43.016Z,62.93
2023-12-27T00:20:43.448Z,65.04
2023-12-27T00:21:43.019Z,65.71
2023-12-27T00:22:43.094Z,62.72
2023-12-27T00:23:43.156Z,60.23
2023-12-27T00:24:43.190Z,63.41
2023-12-27T00:25:43.261Z,63.73
2023-12-27T00:26:43.294Z,63.50
2023-12-27T00:27:43.389Z,63.12
2023-12-27T00:28:43.367Z,63.16
2023-12-27T00:29:43.383Z,63.24
2023-12-27T00:30:43.489Z,63.12
2023-12-27T00:31:43.377Z,63.39
2023-12-27T00:32:43.449Z,63.43
2023-12-27T00:33:43.532Z,64.49
2023-12-27T00:34:43.430Z,63.41
2023-12-27T00:35:43.404Z,63.42
2023-12-27T00:36:43.391Z,62.19
2023-12-27T00:37:43.397Z,64.07
2023-12-27T00:38:43.383Z,61.35
2023-12-27T00:39:43.566Z,62.18
2023-12-27T00:40:45.514Z,60.12
2023-12-27T00:41:43.607Z,62.59
2023-12-27T00:42:43.653Z,61.99
2023-12-27T00:43:43.690Z,64.06
2023-12-27T00:44:43.718Z,63.31
2023-12-27T00:45:43.794Z,63.32
2023-12-27T00:46:43.815Z,62.52
2023-12-27T00:47:43.936Z,63.21
2023-12-27T00:48:43.992Z,63.05
2023-12-27T00:49:44.057Z,63.71
2023-12-27T00:57:44.090Z,63.04
2023-12-27T00:58:44.102Z,70.19
2023-12-27T00:59:44.079Z,81.12
2023-12-27T01:00:44.276Z,92.73
2023-12-27T01:01:44.086Z,103.57
2023-12-27T01:02:44.116Z,111.12
2023-12-27T01:03:44.191Z,102.37
2023-12-27T01:04:44.174Z,97.77
2023-12-27T01:05:44.129Z,94.32
2023-12-27T01:06:44.136Z,89.28
2023-12-27T01:07:44.123Z,88.51
2023-12-27T01:08:44.119Z,85.45
2023-12-27T01:09:44.155Z,82.33
2023-12-27T01:10:44.130Z,81.09
2023-12-27T01:11:44.138Z,78.27
2023-12-27T01:12:44.171Z,80.55
2023-12-27T01:13:44.142Z,78.07
2023-12-27T01:14:44.160Z,77.98
2023-12-27T01:15:44.137Z,77.98
2023-12-27T01:16:44.147Z,73.29
2023-12-27T01:17:44.149Z,73.38
2023-12-27T01:18:44.316Z,75.18
2023-12-27T01:19:44.214Z,74.67
2023-12-27T01:20:44.172Z,73.79
2023-12-27T01:21:44.175Z,71.16
2023-12-27T01:22:44.159Z,72.60
2023-12-27T01:23:44.144Z,72.48
2023-12-27T01:24:44.160Z,69.64
2023-12-27T01:25:44.160Z,71.07
2023-12-27T01:26:44.172Z,68.68
2023-12-27T01:27:44.156Z,68.51
2023-12-27T01:28:44.196Z,67.72
2023-12-27T01:29:44.185Z,67.83
2023-12-27T01:30:44.455Z,67.89
2023-12-27T01:31:44.191Z,66.82
2023-12-27T01:32:44.217Z,68.47
2023-12-27T01:33:44.343Z,69.34
2023-12-27T01:34:44.284Z,67.80
2023-12-27T01:35:44.212Z,67.28
2023-12-27T01:36:44.193Z,68.13
2023-12-27T01:37:44.192Z,68.21
2023-12-27T01:38:44.203Z,65.95
2023-12-27T01:39:44.200Z,67.62
2023-12-27T01:40:44.211Z,65.80
2023-12-27T01:41:44.218Z,64.57
2023-12-27T01:42:44.199Z,65.08
2023-12-27T01:43:44.207Z,67.23
2023-12-27T01:44:44.224Z,65.00
2023-12-27T01:45:44.360Z,65.68
2023-12-27T01:46:44.348Z,63.09
2023-12-27T01:47:44.452Z,66.24
2023-12-27T01:48:44.532Z,64.15
2023-12-27T01:49:44.749Z,64.25
2023-12-27T01:50:44.511Z,64.32
2023-12-27T01:51:44.492Z,64.63
2023-12-27T01:52:44.486Z,64.41
2023-12-27T01:53:44.489Z,62.75
2023-12-27T01:54:44.492Z,65.86
2023-12-27T01:55:44.496Z,62.98
2023-12-27T01:56:44.537Z,64.39
2023-12-27T01:57:44.579Z,63.29
2023-12-27T01:58:44.482Z,65.05
2023-12-27T01:59:44.498Z,65.11
2023-12-27T02:00:44.578Z,64.82
2023-12-27T02:01:44.525Z,63.49
2023-12-27T02:02:44.487Z,64.32
2023-12-27T02:03:44.600Z,61.97
2023-12-27T02:04:44.578Z,64.56
2023-12-27T02:05:44.520Z,64.66
2023-12-27T02:06:44.545Z,64.68
2023-12-27T02:07:44.517Z,64.67
2023-12-27T02:08:44.520Z,64.96
2023-12-27T02:09:44.534Z,65.16
2023-12-27T02:10:44.515Z,64.07
2023-12-27T02:11:44.546Z,63.65
2023-12-27T02:12:44.521Z,66.39
2023-12-27T02:13:44.541Z,63.66
2023-12-27T02:14:44.522Z,63.10
2023-12-27T02:15:44.595Z,64.98
2023-12-27T02:16:44.546Z,63.03
2023-12-27T02:17:44.602Z,63.97
2023-12-27T02:18:44.683Z,62.45
2023-12-27T02:19:44.661Z,62.55
2023-12-27T02:20:44.570Z,62.83
2023-12-27T02:21:44.628Z,63.08
2023-12-27T02:22:44.561Z,64.01
2023-12-27T02:23:44.597Z,64.61
2023-12-27T02:24:44.561Z,64.73
2023-12-27T02:25:44.629Z,63.42
2023-12-27T02:26:44.595Z,65.52
2023-12-27T02:27:44.593Z,65.48
2023-12-27T02:28:44.583Z,65.60
2023-12-27T02:29:44.615Z,64.91
2023-12-27T02:30:44.759Z,62.52
2023-12-27T02:31:44.634Z,64.05
2023-12-27T02:32:44.716Z,62.22
2023-12-27T02:33:44.905Z,63.92
2023-12-27T02:34:44.802Z,63.86
2023-12-27T02:35:44.633Z,62.41
2023-12-27T02:36:44.631Z,61.06
2023-12-27T02:37:44.629Z,63.62
2023-12-27T02:38:44.588Z,65.51
2023-12-27T02:39:44.607Z,65.54
2023-12-27T02:40:44.619Z,64.62
2023-12-27T02:41:44.645Z,62.10
2023-12-27T02:42:44.628Z,62.27
2023-12-27T02:43:44.618Z,63.21
2023-12-27T02:44:44.601Z,62.35
2023-12-27T02:45:44.626Z,62.74
2023-12-27T02:46:44.669Z,61.62
2023-12-27T02:47:44.690Z,61.87
2023-12-27T02:48:44.697Z,61.81
2023-12-27T02:49:44.711Z,61.86
2023-12-27T02:50:44.624Z,62.21
2023-12-27T02:51:44.636Z,61.85
2023-12-27T02:52:44.641Z,62.91
2023-12-27T02:53:44.642Z,64.37
2023-12-27T02:54:44.624Z,61.91
2023-12-27T02:55:44.653Z,62.20
2023-12-27T02:56:44.632Z,61.93
2023-12-27T02:57:44.662Z,63.24
2023-12-27T02:58:44.657Z,64.66
2023-12-27T02:59:44.654Z,62.71
2023-12-27T03:00:44.722Z,59.95
2023-12-27T03:01:44.735Z,61.74
2023-12-27T03:02:44.777Z,61.81
2023-12-27T03:03:44.739Z,61.89
2023-12-27T03:04:44.748Z,61.82
2023-12-27T03:05:44.764Z,61.82
2023-12-27T03:06:44.723Z,62.00
2023-12-27T03:07:44.746Z,62.38
2023-12-27T03:08:44.731Z,61.93
2023-12-27T03:09:44.745Z,62.11
2023-12-27T03:10:44.746Z,62.80
2023-12-27T03:11:44.756Z,63.38
2023-12-27T03:12:44.748Z,61.88
2023-12-27T03:13:44.748Z,62.21
2023-12-27T03:14:44.764Z,62.77
2023-12-27T03:15:44.748Z,62.27
2023-12-27T03:16:44.766Z,62.57
2023-12-27T03:17:44.780Z,62.16
2023-12-27T03:18:44.834Z,62.18
2023-12-27T03:19:44.780Z,62.49
2023-12-27T03:20:44.784Z,62.44
2023-12-27T03:21:44.772Z,63.45
2023-12-27T03:22:44.751Z,62.41
2023-12-27T03:23:44.778Z,61.70
2023-12-27T03:24:44.764Z,60.31
2023-12-27T03:25:44.770Z,61.86
2023-12-27T03:26:44.771Z,62.63
2023-12-27T03:27:44.807Z,63.52
2023-12-27T03:28:44.772Z,61.71
2023-12-27T03:29:44.774Z,62.55
2023-12-27T03:30:44.981Z,63.31
2023-12-27T03:31:44.908Z,62.53
2023-12-27T03:32:44.992Z,59.94
2023-12-27T03:33:45.132Z,61.43
2023-12-27T03:34:45.057Z,60.72
2023-12-27T03:35:45.041Z,60.85
2023-12-27T03:36:45.048Z,60.90
2023-12-27T03:37:45.051Z,61.32
2023-12-27T03:38:45.027Z,62.51
2023-12-27T03:39:45.065Z,62.92
2023-12-27T03:40:45.052Z,62.56
2023-12-27T03:41:45.076Z,62.59
2023-12-27T03:42:45.040Z,61.55
2023-12-27T03:43:45.080Z,61.46
2023-12-27T03:44:45.053Z,62.16
2023-12-27T03:45:45.086Z,62.27
2023-12-27T03:46:45.067Z,61.87
2023-12-27T03:47:45.121Z,61.92
2023-12-27T03:48:45.173Z,61.00
2023-12-27T03:49:45.146Z,61.42
2023-12-27T03:50:45.070Z,60.83
2023-12-27T03:51:45.105Z,62.36
2023-12-27T03:52:45.064Z,61.44
2023-12-27T03:53:45.089Z,60.99
2023-12-27T03:54:45.059Z,61.76
2023-12-27T03:55:45.079Z,61.24
2023-12-27T03:56:45.083Z,60.31
2023-12-27T03:57:45.086Z,60.85
2023-12-27T03:58:45.084Z,61.03
2023-12-27T03:59:45.119Z,62.06
2023-12-27T04:00:45.223Z,60.96
2023-12-27T04:01:45.244Z,59.94
2023-12-27T04:02:45.381Z,61.57
2023-12-27T04:03:45.408Z,59.87
2023-12-27T04:04:45.304Z,59.93
2023-12-27T04:05:45.385Z,60.28
2023-12-27T04:06:45.363Z,59.66
2023-12-27T04:07:45.346Z,59.24
2023-12-27T04:08:45.332Z,61.58
2023-12-27T04:09:45.350Z,60.79
2023-12-27T04:10:45.330Z,57.52
2023-12-27T04:11:45.361Z,59.09
2023-12-27T04:12:45.371Z,60.27
2023-12-27T04:13:45.349Z,59.74
2023-12-27T04:14:45.343Z,61.11
2023-12-27T04:15:45.436Z,60.94
2023-12-27T04:16:45.444Z,59.64
2023-12-27T04:17:45.533Z,60.37
2023-12-27T04:18:45.638Z,56.91
2023-12-27T04:19:45.627Z,56.98
2023-12-27T04:20:45.649Z,59.21
2023-12-27T04:21:45.721Z,58.24
2023-12-27T04:22:45.720Z,60.33
2023-12-27T04:23:45.789Z,61.00
2023-12-27T04:24:45.833Z,60.81
2023-12-27T04:25:45.886Z,58.96
2023-12-27T04:26:45.930Z,59.16
2023-12-27T04:27:45.999Z,58.07
2023-12-27T04:28:46.045Z,59.46
2023-12-27T04:29:46.109Z,59.77
2023-12-27T04:30:46.199Z,57.93
2023-12-27T04:31:46.205Z,59.89
2023-12-27T04:32:46.280Z,59.98
2023-12-27T04:33:46.254Z,60.05
2023-12-27T04:34:46.191Z,59.79
2023-12-27T04:35:46.191Z,59.99
2023-12-27T04:36:46.205Z,60.33
2023-12-27T04:37:46.203Z,59.96
2023-12-27T04:38:46.214Z,58.04
2023-12-27T04:39:46.221Z,60.19
2023-12-27T04:40:58.536Z,50.00
2023-12-27T04:41:58.636Z,50.00
2023-12-27T04:42:58.603Z,50.00
2023-12-27T04:43:58.654Z,50.00
2023-12-27T04:44:58.716Z,50.00
2023-12-27T04:45:58.756Z,51.60
2023-12-27T04:46:58.796Z,50.97
2023-12-27T04:47:59.177Z,50.20
2023-12-27T04:48:59.030Z,51.76
2023-12-27T04:49:59.151Z,51.50
2023-12-27T04:50:59.033Z,52.07
2023-12-27T04:51:59.086Z,51.29
2023-12-27T04:52:59.122Z,54.40
2023-12-27T04:53:59.219Z,52.88
2023-12-27T04:54:59.184Z,52.91
2023-12-27T04:55:59.214Z,52.94
2023-12-27T04:56:59.235Z,53.28
2023-12-27T04:57:59.516Z,53.41
2023-12-27T04:58:59.216Z,51.46
2023-12-27T04:59:59.231Z,50.24
2023-12-27T05:00:59.274Z,50.54
2023-12-27T05:01:59.224Z,51.08
2023-12-27T05:02:59.268Z,53.27
2023-12-27T05:03:59.328Z,51.67
2023-12-27T05:04:59.201Z,51.98
2023-12-27T05:05:59.320Z,53.42
2023-12-27T05:06:59.296Z,52.17
2023-12-27T05:07:59.583Z,53.84
2023-12-27T05:08:59.475Z,53.55
2023-12-27T05:09:59.449Z,52.27
2023-12-27T05:10:59.500Z,52.08
2023-12-27T05:11:59.588Z,53.82
2023-12-27T05:12:59.561Z,53.87
2023-12-27T05:13:59.564Z,53.98
2023-12-27T05:14:59.572Z,52.21
2023-12-27T05:15:59.572Z,54.23
2023-12-27T05:16:59.565Z,52.01
2023-12-27T05:17:59.984Z,53.77
2023-12-27T05:18:59.745Z,51.73
2023-12-27T05:19:59.588Z,54.72
2023-12-27T05:20:59.620Z,50.96
2023-12-27T05:21:59.609Z,50.88
2023-12-27T05:22:59.584Z,54.52
2023-12-27T05:23:59.735Z,53.71
2023-12-27T05:24:59.642Z,54.21
2023-12-27T05:25:59.723Z,52.27
2023-12-27T05:26:59.825Z,52.93
2023-12-27T05:27:59.964Z,51.82
2023-12-27T05:28:59.860Z,53.62
2023-12-27T05:30:00.069Z,53.56
2023-12-27T05:31:00.112Z,53.87
2023-12-27T05:32:00.028Z,52.33
2023-12-27T05:33:00.302Z,51.55
2023-12-27T05:34:00.359Z,53.76
2023-12-27T05:35:00.227Z,53.14
2023-12-27T05:36:00.415Z,53.96
2023-12-27T05:37:00.268Z,51.99
2023-12-27T05:38:00.383Z,51.68
2023-12-27T05:39:00.496Z,52.55
2023-12-27T05:40:00.467Z,52.54
2023-12-27T05:41:00.492Z,52.80
2023-12-27T05:42:00.645Z,52.05
2023-12-27T05:43:00.596Z,54.09
2023-12-27T05:44:00.657Z,52.57
2023-12-27T05:45:00.868Z,52.69
2023-12-27T05:46:00.771Z,53.22
2023-12-27T05:47:00.833Z,52.84
2023-12-27T05:48:01.168Z,53.33
2023-12-27T05:49:00.974Z,52.03
2023-12-27T05:50:00.973Z,51.80
2023-12-27T05:51:01.032Z,52.31
2023-12-27T05:52:01.076Z,51.11
2023-12-27T05:53:01.106Z,52.16
2023-12-27T05:54:01.209Z,53.40
2023-12-27T05:55:01.215Z,54.33
2023-12-27T05:56:01.272Z,52.57
2023-12-27T05:57:01.396Z,52.07
2023-12-27T05:58:01.390Z,53.65
2023-12-27T05:59:01.407Z,53.73
2023-12-27T06:00:01.453Z,53.66
2023-12-27T06:01:01.485Z,53.57
2023-12-27T06:02:01.413Z,52.80
2023-12-27T06:03:01.443Z,52.50
2023-12-27T06:04:01.435Z,52.26
2023-12-27T06:05:01.441Z,53.88
2023-12-27T06:06:01.431Z,52.12
2023-12-27T06:07:01.416Z,55.03
2023-12-27T06:08:01.428Z,50.72
2023-12-27T06:09:01.407Z,50.70
2023-12-27T06:10:01.438Z,51.04
2023-12-27T06:11:01.507Z,51.68
2023-12-27T06:12:01.550Z,52.35
2023-12-27T06:13:01.569Z,52.06
2023-12-27T06:14:01.585Z,52.20
2023-12-27T06:15:01.636Z,52.56
2023-12-27T06:16:01.616Z,52.20
2023-12-27T06:17:01.602Z,52.08
2023-12-27T06:18:01.955Z,52.49
2023-12-27T06:19:01.647Z,52.24
2023-12-27T06:20:01.629Z,52.51
2023-12-27T06:21:01.610Z,52.15
2023-12-27T06:22:01.620Z,52.12
2023-12-27T06:23:01.596Z,52.47
2023-12-27T06:24:01.640Z,52.19
2023-12-27T06:25:01.615Z,52.22
2023-12-27T06:26:01.630Z,52.75
2023-12-27T06:27:01.654Z,53.25
2023-12-27T06:28:01.629Z,54.27
2023-12-27T06:29:01.618Z,52.83
2023-12-27T06:30:01.658Z,53.43
2023-12-27T06:31:01.671Z,52.31
2023-12-27T06:32:01.651Z,52.50
2023-12-27T06:33:01.738Z,50.97
2023-12-27T06:34:01.773Z,53.15
2023-12-27T06:35:01.641Z,50.30
2023-12-27T06:36:01.723Z,50.42
2023-12-27T06:37:01.710Z,50.54
2023-12-27T06:38:01.648Z,50.47
2023-12-27T06:39:01.658Z,51.08
2023-12-27T06:40:01.704Z,52.02
2023-12-27T06:41:01.649Z,50.81
2023-12-27T06:42:01.700Z,51.74
2023-12-27T06:43:01.653Z,51.75
2023-12-27T06:44:01.671Z,51.85
2023-12-27T06:45:01.677Z,52.12
2023-12-27T06:46:01.682Z,52.15
2023-12-27T06:47:01.678Z,52.20
2023-12-27T06:48:01.881Z,52.28
2023-12-27T06:49:01.768Z,52.64
2023-12-27T06:50:01.778Z,53.12
2023-12-27T06:51:01.688Z,53.82
2023-12-27T06:52:01.739Z,49.90
2023-12-27T06:53:01.709Z,51.55
2023-12-27T06:54:01.714Z,53.03
2023-12-27T06:55:01.686Z,53.80
2023-12-27T06:56:01.691Z,53.37
2023-12-27T06:57:01.720Z,53.00
2023-12-27T06:58:01.769Z,51.44
2023-12-27T06:59:01.778Z,52.43
2023-12-27T07:00:01.879Z,51.68
2023-12-27T07:01:02.013Z,52.50
2023-12-27T07:02:01.989Z,53.79
2023-12-27T07:03:02.078Z,51.56
2023-12-27T07:04:02.103Z,53.11
2023-12-27T07:05:02.219Z,52.31
2023-12-27T07:06:02.204Z,52.37
2023-12-27T07:07:03.299Z,52.21
2023-12-27T07:08:02.129Z,52.72
2023-12-27T07:09:02.148Z,52.37
2023-12-27T07:10:02.146Z,53.63
2023-12-27T07:11:02.125Z,52.34
2023-12-27T07:12:02.245Z,52.46
2023-12-27T07:13:02.134Z,52.52
2023-12-27T07:14:02.168Z,53.21
2023-12-27T07:15:02.170Z,53.52
2023-12-27T07:16:02.131Z,51.71
2023-12-27T07:17:02.125Z,53.05
2023-12-27T07:18:02.544Z,51.62
2023-12-27T07:19:02.163Z,50.12
2023-12-27T07:20:02.152Z,54.24
2023-12-27T07:21:02.201Z,51.11
2023-12-27T07:22:02.232Z,52.55
2023-12-27T07:23:02.276Z,52.40
2023-12-27T07:24:02.380Z,50.78
2023-12-27T07:25:02.360Z,53.17
2023-12-27T07:26:02.451Z,51.87
2023-12-27T07:27:02.548Z,52.51
2023-12-27T07:28:02.549Z,53.63
2023-12-27T07:29:02.594Z,53.39
2023-12-27T07:30:02.755Z,52.99
2023-12-27T07:31:02.760Z,52.72
2023-12-27T07:32:02.759Z,53.26
2023-12-27T07:33:02.883Z,52.82
2023-12-27T07:34:02.982Z,53.81
2023-12-27T07:35:02.904Z,51.67
2023-12-27T07:36:03.011Z,51.32
2023-12-27T07:37:02.981Z,51.84
2023-12-27T07:38:03.063Z,50.66
2023-12-27T07:39:03.123Z,53.26
2023-12-27T07:40:03.118Z,52.07
2023-12-27T07:41:03.098Z,53.43
2023-12-27T07:42:03.943Z,52.99
2023-12-27T07:43:03.128Z,52.44
2023-12-27T07:44:03.136Z,53.29
2023-12-27T07:45:03.137Z,53.02
2023-12-27T07:46:03.092Z,53.32
2023-12-27T07:47:03.836Z,53.74
2023-12-27T07:48:03.447Z,52.96
2023-12-27T07:49:03.305Z,52.61
2023-12-27T07:50:03.183Z,51.88
2023-12-27T07:51:03.174Z,50.31
2023-12-27T07:52:03.431Z,51.53
2023-12-27T07:53:03.128Z,51.62
2023-12-27T07:54:03.220Z,51.71
2023-12-27T07:55:03.171Z,50.72
2023-12-27T07:56:03.170Z,47.53
2023-12-27T07:57:03.173Z,49.64
2023-12-27T07:58:03.152Z,53.19
2023-12-27T07:59:03.219Z,50.00
2023-12-27T08:00:03.262Z,51.60
2023-12-27T08:01:03.397Z,53.80
2023-12-27T08:02:03.361Z,50.59
2023-12-27T08:03:03.504Z,53.86
2023-12-27T08:04:03.579Z,51.98
2023-12-27T08:05:03.511Z,56.56
2023-12-27T08:06:03.645Z,51.54
2023-12-27T08:08:03.680Z,51.13
2023-12-27T08:09:03.677Z,51.25
2023-12-27T08:10:03.651Z,51.60
2023-12-27T08:11:03.662Z,51.43
2023-12-27T08:12:03.742Z,51.26
2023-12-27T08:13:03.693Z,51.83
2023-12-27T08:14:03.682Z,52.56
2023-12-27T08:15:03.769Z,53.35
2023-12-27T08:16:03.649Z,56.25
2023-12-27T08:17:03.688Z,54.61
2023-12-27T08:18:03.894Z,54.65
2023-12-27T08:19:03.774Z,54.82
2023-12-27T08:20:03.710Z,53.74
2023-12-27T08:21:03.718Z,53.44
2023-12-27T08:22:03.675Z,52.50
2023-12-27T08:23:03.692Z,52.44
2023-12-27T08:24:03.740Z,54.03
2023-12-27T08:25:03.695Z,53.84
2023-12-27T08:26:03.677Z,53.77
2023-12-27T08:27:03.794Z,54.72
2023-12-27T08:28:03.728Z,53.41
2023-12-27T08:29:03.692Z,54.51
2023-12-27T08:30:03.764Z,51.76
2023-12-27T08:32:03.799Z,51.87
2023-12-27T08:33:03.943Z,52.97
2023-12-27T08:34:04.031Z,52.66
2023-12-27T08:35:03.917Z,52.76
2023-12-27T08:36:03.984Z,52.54
2023-12-27T08:37:03.941Z,53.71
2023-12-27T08:38:03.967Z,52.99
2023-12-27T08:39:03.996Z,56.28
2023-12-27T08:40:03.928Z,53.18
2023-12-27T08:41:03.966Z,56.53
2023-12-27T08:42:03.961Z,51.63
2023-12-27T08:43:03.960Z,55.40
2023-12-27T08:44:03.936Z,54.38
2023-12-27T08:45:03.972Z,54.69
2023-12-27T08:46:03.980Z,55.12
2023-12-27T08:47:03.976Z,54.49
2023-12-27T08:48:04.329Z,56.15
2023-12-27T08:49:04.164Z,50.71
2023-12-27T08:50:05.803Z,53.05
2023-12-27T08:51:04.276Z,54.76
2023-12-27T08:52:04.133Z,51.90
2023-12-27T08:53:04.219Z,53.10
2023-12-27T08:54:04.341Z,53.78
2023-12-27T08:55:04.255Z,53.60
2023-12-27T08:56:04.302Z,52.62
2023-12-27T08:57:04.364Z,51.53
2023-12-27T08:58:04.364Z,52.13
2023-12-27T08:59:04.406Z,51.60
2023-12-27T09:00:04.438Z,54.38
2023-12-27T09:01:04.502Z,50.63
2023-12-27T09:02:04.524Z,52.69
2023-12-27T09:03:04.543Z,52.78
2023-12-27T09:04:04.578Z,52.95
2023-12-27T09:05:04.503Z,53.76
2023-12-27T09:06:04.582Z,52.80
2023-12-27T09:07:04.493Z,53.75
2023-12-27T09:08:04.476Z,54.77
2023-12-27T09:09:04.555Z,54.63
2023-12-27T09:10:04.500Z,52.75
2023-12-27T09:11:04.499Z,54.10
2023-12-27T09:12:04.530Z,52.19
2023-12-27T09:13:04.518Z,53.22
2023-12-27T09:14:04.499Z,52.60
2023-12-27T09:15:04.514Z,53.64
2023-12-27T09:16:04.484Z,53.56
2023-12-27T09:17:04.503Z,52.66
2023-12-27T09:18:04.970Z,51.55
2023-12-27T09:19:04.634Z,52.36
2023-12-27T09:20:04.518Z,52.40
2023-12-27T09:21:04.546Z,52.79
2023-12-27T09:22:04.549Z,53.72
2023-12-27T09:23:04.521Z,53.20
2023-12-27T09:24:04.614Z,55.65
2023-12-27T09:25:04.552Z,54.89
2023-12-27T09:26:04.542Z,54.96
2023-12-27T09:27:04.609Z,51.77
2023-12-27T09:28:04.583Z,54.54
2023-12-27T09:29:04.524Z,54.62
2023-12-27T09:30:04.667Z,54.87
2023-12-27T09:31:04.746Z,54.58
2023-12-27T09:32:04.725Z,54.62
2023-12-27T09:33:04.596Z,54.90
2023-12-27T09:34:04.669Z,54.74
2023-12-27T09:35:04.562Z,54.92
2023-12-27T09:36:04.588Z,53.63
2023-12-27T09:37:04.641Z,57.66
2023-12-27T09:38:04.531Z,53.90
2023-12-27T09:39:04.557Z,56.56
2023-12-27T09:40:04.558Z,54.31
2023-12-27T09:41:04.559Z,55.75
2023-12-27T09:42:04.555Z,53.29
2023-12-27T09:43:04.549Z,53.88
2023-12-27T09:44:04.550Z,52.19
2023-12-27T09:45:05.202Z,53.49
2023-12-27T09:46:04.573Z,52.44
2023-12-27T09:47:04.573Z,54.03
2023-12-27T09:48:04.912Z,52.88
2023-12-27T09:49:04.655Z,52.80
2023-12-27T09:50:04.576Z,56.89
2023-12-27T09:51:04.566Z,54.77
2023-12-27T09:52:04.558Z,53.85
2023-12-27T09:53:04.590Z,53.99
2023-12-27T09:54:04.614Z,54.03
2023-12-27T09:55:04.581Z,54.70
2023-12-27T09:56:04.581Z,53.90
2023-12-27T09:57:06.481Z,55.01
2023-12-27T09:58:04.583Z,55.00
2023-12-27T09:59:04.587Z,53.67
2023-12-27T10:00:04.609Z,54.99
2023-12-27T10:01:04.697Z,53.29
2023-12-27T10:02:04.591Z,52.11
2023-12-27T10:03:08.347Z,53.29
2023-12-27T10:04:04.811Z,53.48
2023-12-27T10:05:04.713Z,53.55
2023-12-27T10:06:04.611Z,53.43
2023-12-27T10:07:04.656Z,53.45
2023-12-27T10:08:04.610Z,53.75
2023-12-27T10:09:04.664Z,54.64
2023-12-27T10:10:12.532Z,55.33
2023-12-27T10:11:05.629Z,53.39
2023-12-27T10:12:04.675Z,53.80
2023-12-27T10:13:04.647Z,53.73
2023-12-27T10:14:04.612Z,53.67
2023-12-27T10:15:04.624Z,54.38
2023-12-27T10:16:04.618Z,53.85
2023-12-27T10:17:04.667Z,55.25
2023-12-27T10:18:04.711Z,53.08
2023-12-27T10:19:04.665Z,51.52
2023-12-27T10:20:04.635Z,50.19
2023-12-27T10:21:04.665Z,52.77
2023-12-27T10:22:04.657Z,53.77
2023-12-27T10:23:04.721Z,52.54
2023-12-27T10:24:04.725Z,52.84
2023-12-27T10:25:04.670Z,53.41
2023-12-27T10:26:04.647Z,51.73
2023-12-27T10:27:04.692Z,51.46
2023-12-27T10:28:04.699Z,53.09
2023-12-27T10:29:04.655Z,52.98
2023-12-27T10:30:04.843Z,52.14
2023-12-27T10:31:04.746Z,52.21
2023-12-27T10:32:04.674Z,52.22
2023-12-27T10:33:05.372Z,52.51
2023-12-27T10:34:05.311Z,52.20
2023-12-27T10:35:04.809Z,53.37
2023-12-27T10:36:04.700Z,52.20
2023-12-27T10:37:04.689Z,53.29
2023-12-27T10:38:04.663Z,51.78
2023-12-27T10:39:04.823Z,52.94
2023-12-27T10:40:04.679Z,52.52
2023-12-27T10:41:04.686Z,50.00
2023-12-27T10:42:04.732Z,51.75
2023-12-27T10:43:04.687Z,53.39
2023-12-27T10:44:04.674Z,52.90
2023-12-27T10:45:04.714Z,51.87
2023-12-27T10:46:04.681Z,52.24
2023-12-27T10:47:04.710Z,50.00
2023-12-27T10:48:04.793Z,50.55
2023-12-27T10:49:04.821Z,54.96
2023-12-27T10:50:04.686Z,51.04
2023-12-27T10:51:04.709Z,52.44
2023-12-27T11:00:04.813Z,52.44
2023-12-27T11:01:04.806Z,56.37
2023-12-27T11:02:04.745Z,66.77
2023-12-27T11:03:04.835Z,80.47
2023-12-27T11:04:04.788Z,94.18
2023-12-27T11:05:04.758Z,104.75
2023-12-27T11:06:04.785Z,97.95
2023-12-27T11:07:04.916Z,97.98
2023-12-27T11:08:04.760Z,87.74
2023-12-27T11:09:04.811Z,85.61
2023-12-27T11:10:04.766Z,79.95
2023-12-27T11:11:04.776Z,77.20
2023-12-27T11:12:04.781Z,75.68
2023-12-27T11:13:04.776Z,74.90
2023-12-27T11:14:04.760Z,71.72
2023-12-27T11:15:04.828Z,69.63
2023-12-27T11:16:04.825Z,70.16
2023-12-27T11:17:04.805Z,65.29
2023-12-27T11:18:05.319Z,65.95
2023-12-27T11:19:04.864Z,64.98
2023-12-27T11:20:04.857Z,63.48
2023-12-27T11:21:04.817Z,62.67
2023-12-27T11:22:04.800Z,62.78
2023-12-27T11:23:04.821Z,62.18
2023-12-27T11:24:04.808Z,60.61
2023-12-27T11:25:04.806Z,59.82
2023-12-27T11:26:04.809Z,59.06
2023-12-27T11:27:04.875Z,59.53
2023-12-27T11:28:04.833Z,58.50
2023-12-27T11:29:04.815Z,59.35
2023-12-27T11:30:04.876Z,59.86
2023-12-27T11:31:05.087Z,57.79
2023-12-27T11:32:04.849Z,57.08
2023-12-27T11:33:04.963Z,57.21
2023-12-27T11:34:04.890Z,57.84
2023-12-27T11:35:04.901Z,56.97
2023-12-27T11:36:05.002Z,54.71
2023-12-27T11:37:04.849Z,55.40
2023-12-27T11:38:04.821Z,55.36
2023-12-27T11:39:04.982Z,54.87
2023-12-27T11:40:04.836Z,53.81
2023-12-27T11:41:04.928Z,55.45
2023-12-27T11:42:04.864Z,55.10
2023-12-27T11:43:04.927Z,55.45
2023-12-27T11:44:05.165Z,55.22
2023-12-27T11:45:04.891Z,54.01
2023-12-27T11:46:04.912Z,52.00
2023-12-27T11:47:04.905Z,54.08
2023-12-27T11:48:05.117Z,55.55
2023-12-27T11:49:05.186Z,54.48
2023-12-27T11:50:04.867Z,54.19
2023-12-27T11:51:04.919Z,55.04
2023-12-27T11:52:04.867Z,56.21
2023-12-27T11:53:10.460Z,53.06
2023-12-27T11:54:05.977Z,53.12
2023-12-27T11:55:04.906Z,51.72
2023-12-27T11:56:04.937Z,53.14
2023-12-27T11:57:04.926Z,51.67
2023-12-27T11:58:04.898Z,53.13
2023-12-27T11:59:04.900Z,53.42
2023-12-27T12:00:04.935Z,52.69
2023-12-27T12:01:04.930Z,52.15
2023-12-27T12:02:04.902Z,54.55
2023-12-27T12:03:04.920Z,53.90
2023-12-27T12:04:04.895Z,52.68
2023-12-27T12:05:04.922Z,50.21
2023-12-27T12:06:05.048Z,53.19
2023-12-27T12:07:04.992Z,50.11
2023-12-27T12:08:04.913Z,50.24
2023-12-27T12:09:04.944Z,50.44
2023-12-27T12:10:04.934Z,50.70
2023-12-27T12:11:04.910Z,51.01
2023-12-27T12:12:04.940Z,53.04
2023-12-27T12:13:04.925Z,52.31
2023-12-27T12:14:04.935Z,50.39
2023-12-27T12:15:04.962Z,51.18
2023-12-27T12:16:04.923Z,51.80
2023-12-27T12:17:04.926Z,53.01
2023-12-27T12:18:05.259Z,52.26
2023-12-27T12:19:04.952Z,53.93
2023-12-27T12:20:04.998Z,52.39
2023-12-27T12:21:04.963Z,52.23
2023-12-27T12:22:04.959Z,52.00
2023-12-27T12:23:04.923Z,52.69
2023-12-27T12:24:04.950Z,52.73
2023-12-27T12:25:04.920Z,52.90
2023-12-27T12:26:04.951Z,52.98
2023-12-27T12:27:05.033Z,51.22
2023-12-27T12:28:05.118Z,51.50
2023-12-27T12:29:04.927Z,55.02
2023-12-27T12:30:04.976Z,52.65
2023-12-27T12:31:05.050Z,52.75
2023-12-27T12:32:04.972Z,52.94
2023-12-27T12:33:05.078Z,53.49
2023-12-27T12:34:05.106Z,54.08
2023-12-27T12:35:04.939Z,53.55
2023-12-27T12:36:05.189Z,52.80
2023-12-27T12:37:04.958Z,52.72
2023-12-27T12:38:04.996Z,53.85
2023-12-27T12:39:06.304Z,53.38
2023-12-27T12:40:05.094Z,54.64
2023-12-27T12:41:04.974Z,54.28
2023-12-27T12:42:05.049Z,51.68
2023-12-27T12:43:04.965Z,52.30
2023-12-27T12:44:04.997Z,53.04
2023-12-27T12:45:05.056Z,52.30
2023-12-27T12:46:05.002Z,52.42
2023-12-27T12:47:04.999Z,52.25
2023-12-27T12:48:05.078Z,53.10
2023-12-27T12:49:05.042Z,52.38
2023-12-27T12:50:05.061Z,51.17
2023-12-27T12:51:04.997Z,52.42
2023-12-27T12:52:05.057Z,52.71
2023-12-27T12:53:05.000Z,52.72
2023-12-27T12:54:05.036Z,53.07
2023-12-27T12:55:04.994Z,52.43
2023-12-27T12:56:05.008Z,51.71
2023-12-27T12:57:05.075Z,52.98
2023-12-27T12:58:05.107Z,50.66
2023-12-27T12:59:05.004Z,53.12
2023-12-27T13:00:05.052Z,49.25
2023-12-27T13:01:08.332Z,53.10
2023-12-27T13:02:05.023Z,53.01
2023-12-27T13:03:05.158Z,52.99
2023-12-27T13:04:05.130Z,53.03
2023-12-27T13:05:05.064Z,53.14
2023-12-27T13:06:05.030Z,53.46
2023-12-27T13:07:05.182Z,53.71
2023-12-27T13:08:05.043Z,50.41
2023-12-27T13:09:05.050Z,50.67
2023-12-27T13:10:05.047Z,51.59